Time;durP1;ratioP1;P1;durP2;ratioP2;P2;SDS_P1;SDS_P2;PMS_P1;PMS_P2;Temp;Humidity;BMP_temperature;BMP_pressure;BME280_temperature;BME280_humidity;BME280_pressure;Samples;Min_cycle;Max_cycle;Signal;HPM_P1;HPM_P2
2022/05/09 00:00:46;;;;;;;;;;;22.30;45.70;;;;;;468152;254;1715;-39
2022/05/09 00:02:48;;;;;;;;;;;22.30;45.70;;;;;;467764;254;1223;-39
2022/05/09 00:04:49;;;;;;;;;;;22.30;45.70;;;;;;467764;254;1277;-39
2022/05/09 00:06:50;;;;;;;;;;;22.20;45.70;;;;;;468032;254;1198;-39
2022/05/09 00:08:52;;;;;;;;;;;22.30;45.80;;;;;;468137;254;2129;-39
2022/05/09 00:10:53;;;;;;;;;;;22.20;45.70;;;;;;468097;254;1245;-39
2022/05/09 00:12:54;;;;;;;;;;;22.30;45.70;;;;;;467982;254;1245;-39
2022/05/09 00:14:56;;;;;;;;;;;22.20;45.80;;;;;;468119;254;1340;-39
2022/05/09 00:16:57;;;;;;;;;;;22.20;45.80;;;;;;467779;254;1229;-39
2022/05/09 00:18:58;;;;;;;;;;;22.20;45.70;;;;;;467664;254;1277;-39
2022/05/09 00:20:59;;;;;;;;;;;22.20;45.70;;;;;;467784;254;1296;-38
2022/05/09 00:23:01;;;;;;;;;;;22.20;45.70;;;;;;468080;254;1172;-39
2022/05/09 00:25:02;;;;;;;;;;;22.20;45.70;;;;;;468132;254;1386;-39
2022/05/09 00:27:04;;;;;;;;;;;22.20;45.80;;;;;;467955;254;1219;-39
2022/05/09 00:29:06;;;;;;;;;;;22.20;45.70;;;;;;468089;254;2130;-39
2022/05/09 00:31:06;;;;;;;;;;;22.30;45.80;;;;;;467633;255;2444;-39
2022/05/09 00:33:08;;;;;;;;;;;22.30;45.70;;;;;;467688;254;1270;-38
2022/05/09 00:35:09;;;;;;;;;;;22.30;45.70;;;;;;467806;254;1195;-39
2022/05/09 00:37:11;;;;;;;;;;;22.30;45.70;;;;;;468127;254;1192;-39
2022/05/09 00:39:12;;;;;;;;;;;22.30;45.60;;;;;;467767;254;1174;-39
2022/05/09 00:43:32;;;;;;;;;;;22.20;45.60;;;;;;467991;255;1360;-39
2022/05/09 00:45:34;;;;;;;;;;;22.30;45.70;;;;;;467733;254;1201;-39
2022/05/09 00:47:35;;;;;;;;;;;22.30;45.60;;;;;;467629;254;2216;-39
2022/05/09 00:49:37;;;;;;;;;;;22.30;45.60;;;;;;467927;254;1252;-39
2022/05/09 00:51:38;;;;;;;;;;;22.30;45.60;;;;;;467697;254;2216;-39
2022/05/09 00:53:39;;;;;;;;;;;22.30;45.70;;;;;;468137;254;1310;-39
2022/05/09 00:55:42;;;;;;;;;;;22.20;45.70;;;;;;467662;254;1182;-39
2022/05/09 00:57:42;;;;;;;;;;;22.30;45.80;;;;;;467687;254;1967;-39
2022/05/09 00:59:43;;;;;;;;;;;22.20;45.70;;;;;;468009;254;1174;-39
2022/05/09 01:01:45;;;;;;;;;;;22.20;45.80;;;;;;468074;255;1657;-39
2022/05/09 01:03:46;;;;;;;;;;;22.20;45.70;;;;;;468034;254;1195;-39
2022/05/09 01:05:50;;;;;;;;;;;22.20;45.80;;;;;;467721;254;1157;-39
2022/05/09 01:07:49;;;;;;;;;;;22.30;45.70;;;;;;467888;255;2125;-39
2022/05/09 01:09:50;;;;;;;;;;;22.30;45.70;;;;;;468156;254;1067;-39
2022/05/09 01:11:52;;;;;;;;;;;22.20;45.70;;;;;;467659;254;1283;-39
2022/05/09 01:13:53;;;;;;;;;;;22.20;45.70;;;;;;467693;254;1313;-39
2022/05/09 01:15:54;;;;;;;;;;;22.20;45.70;;;;;;467652;254;1060;-39
2022/05/09 01:17:56;;;;;;;;;;;22.20;45.70;;;;;;467664;254;1083;-38
2022/05/09 01:19:57;;;;;;;;;;;22.30;45.60;;;;;;467716;254;1157;-39
2022/05/09 01:21:58;;;;;;;;;;;22.30;45.60;;;;;;468094;254;1152;-39
2022/05/09 01:24:00;;;;;;;;;;;22.30;45.60;;;;;;467746;254;1059;-39
2022/05/09 01:26:01;;;;;;;;;;;22.30;45.60;;;;;;467873;254;1065;-39
2022/05/09 01:28:02;;;;;;;;;;;22.30;45.60;;;;;;468176;254;2142;-39
2022/05/09 01:30:04;;;;;;;;;;;22.30;45.60;;;;;;467766;254;1146;-39
2022/05/09 01:32:05;;;;;;;;;;;22.30;45.60;;;;;;467720;254;1244;-38
2022/05/09 01:34:09;;;;;;;;;;;22.30;45.60;;;;;;468043;254;1229;-38
2022/05/09 01:36:08;;;;;;;;;;;22.30;45.60;;;;;;467601;254;2021;-39
2022/05/09 01:38:10;;;;;;;;;;;22.30;45.60;;;;;;467707;254;1233;-39
2022/05/09 01:40:11;;;;;;;;;;;22.30;45.60;;;;;;468121;254;1422;-39
2022/05/09 01:42:12;;;;;;;;;;;22.30;45.70;;;;;;467681;254;1223;-39
2022/05/09 01:44:14;;;;;;;;;;;22.30;45.60;;;;;;467839;254;1214;-39
2022/05/09 01:46:15;;;;;;;;;;;22.30;45.70;;;;;;467722;254;1259;-39
2022/05/09 01:50:36;;;;;;;;;;;22.30;45.70;;;;;;467753;255;1246;-38
2022/05/09 01:52:38;;;;;;;;;;;22.20;45.70;;;;;;468113;254;1229;-39
2022/05/09 01:54:41;;;;;;;;;;;22.20;45.70;;;;;;468067;255;2139;-39
2022/05/09 01:56:41;;;;;;;;;;;22.20;45.70;;;;;;468087;255;2098;-39
2022/05/09 01:58:43;;;;;;;;;;;22.30;45.60;;;;;;468141;254;1298;-39
2022/05/09 02:00:44;;;;;;;;;;;22.30;45.60;;;;;;468092;254;1210;-39
2022/05/09 02:02:45;;;;;;;;;;;22.30;45.60;;;;;;467705;254;1276;-38
2022/05/09 02:04:47;;;;;;;;;;;22.30;45.60;;;;;;467961;254;1639;-39
2022/05/09 02:06:48;;;;;;;;;;;22.30;45.70;;;;;;467908;254;1108;-39
2022/05/09 02:08:49;;;;;;;;;;;22.30;45.70;;;;;;467846;254;2149;-38
2022/05/09 02:10:50;;;;;;;;;;;22.30;45.70;;;;;;468127;254;1245;-39
2022/05/09 02:12:52;;;;;;;;;;;22.20;45.70;;;;;;467842;254;1238;-39
2022/05/09 02:14:53;;;;;;;;;;;22.20;45.60;;;;;;467667;254;1990;-39
2022/05/09 02:16:54;;;;;;;;;;;22.20;45.70;;;;;;467648;254;1245;-39
2022/05/09 02:18:56;;;;;;;;;;;22.30;45.60;;;;;;467671;254;1194;-39
2022/05/09 02:20:58;;;;;;;;;;;22.30;45.60;;;;;;467829;254;1181;-39
2022/05/09 02:22:59;;;;;;;;;;;22.30;45.70;;;;;;467677;254;1139;-39
2022/05/09 02:25:00;;;;;;;;;;;22.30;45.60;;;;;;467816;254;1063;-39
2022/05/09 02:27:02;;;;;;;;;;;22.30;45.60;;;;;;466090;255;2224;-39
2022/05/09 02:29:03;;;;;;;;;;;22.30;45.70;;;;;;468134;254;2208;-39
2022/05/09 02:31:05;;;;;;;;;;;22.30;45.60;;;;;;467748;254;1159;-39
2022/05/09 02:33:06;;;;;;;;;;;22.20;45.60;;;;;;468065;254;1297;-39
2022/05/09 02:35:07;;;;;;;;;;;22.30;45.70;;;;;;467651;254;1272;-39
2022/05/09 02:37:08;;;;;;;;;;;22.30;45.70;;;;;;467620;254;1176;-39
2022/05/09 02:39:10;;;;;;;;;;;22.30;45.70;;;;;;467830;254;1150;-39
2022/05/09 02:41:11;;;;;;;;;;;22.20;45.80;;;;;;467671;254;1314;-39
2022/05/09 02:43:12;;;;;;;;;;;22.20;45.70;;;;;;468135;254;1293;-39
2022/05/09 02:45:14;;;;;;;;;;;22.20;45.70;;;;;;468047;253;1292;-39
2022/05/09 02:47:17;;;;;;;;;;;22.20;45.70;;;;;;467833;254;1231;-39
2022/05/09 02:49:17;;;;;;;;;;;22.20;45.70;;;;;;467863;255;2338;-39
2022/05/09 02:51:18;;;;;;;;;;;22.20;45.70;;;;;;467322;255;1351;-39
2022/05/09 02:53:19;;;;;;;;;;;22.20;45.70;;;;;;467899;254;1243;-39
2022/05/09 02:55:21;;;;;;;;;;;22.20;45.70;;;;;;467682;254;1491;-39
2022/05/09 02:57:22;;;;;;;;;;;22.20;45.70;;;;;;467624;254;1201;-39
2022/05/09 02:59:23;;;;;;;;;;;22.20;45.70;;;;;;468048;254;1362;-39
2022/05/09 03:01:24;;;;;;;;;;;22.20;45.70;;;;;;467912;254;1176;-39
2022/05/09 03:05:45;;;;;;;;;;;22.30;45.70;;;;;;467621;253;1568;-39
2022/05/09 03:07:46;;;;;;;;;;;22.30;45.60;;;;;;467724;254;1592;-39
2022/05/09 03:09:48;;;;;;;;;;;22.30;45.60;;;;;;467657;254;2199;-39
2022/05/09 03:11:49;;;;;;;;;;;22.30;45.60;;;;;;467602;254;1222;-39
2022/05/09 03:13:50;;;;;;;;;;;22.30;45.60;;;;;;468050;254;1189;-39
2022/05/09 03:15:52;;;;;;;;;;;22.30;45.70;;;;;;467702;254;1642;-39
2022/05/09 03:17:53;;;;;;;;;;;22.20;45.60;;;;;;467868;254;1267;-39
2022/05/09 03:19:55;;;;;;;;;;;22.20;45.70;;;;;;468086;254;1266;-39
2022/05/09 03:21:56;;;;;;;;;;;22.30;45.70;;;;;;467801;254;2086;-39
2022/05/09 03:23:57;;;;;;;;;;;22.30;45.60;;;;;;468124;254;1403;-39
2022/05/09 03:25:58;;;;;;;;;;;22.30;45.70;;;;;;467983;254;1224;-39
2022/05/09 03:28:00;;;;;;;;;;;22.20;45.70;;;;;;467719;254;1306;-39
2022/05/09 03:30:01;;;;;;;;;;;22.30;45.60;;;;;;467641;254;2197;-39
2022/05/09 03:32:03;;;;;;;;;;;22.30;45.60;;;;;;468016;254;1163;-39
2022/05/09 03:34:04;;;;;;;;;;;22.20;45.70;;;;;;467668;254;1349;-39
2022/05/09 03:36:06;;;;;;;;;;;22.20;45.70;;;;;;467924;254;1240;-39
2022/05/09 03:38:07;;;;;;;;;;;22.20;45.70;;;;;;467663;254;1272;-39
2022/05/09 03:40:09;;;;;;;;;;;22.30;45.70;;;;;;467971;254;1170;-39
2022/05/09 03:42:10;;;;;;;;;;;22.20;45.70;;;;;;467806;254;1261;-39
2022/05/09 03:44:11;;;;;;;;;;;22.20;45.70;;;;;;467767;254;1077;-39
2022/05/09 03:46:12;;;;;;;;;;;22.20;45.80;;;;;;467695;254;1061;-39
2022/05/09 03:48:14;;;;;;;;;;;22.20;45.70;;;;;;467585;254;1344;-39
2022/05/09 03:50:15;;;;;;;;;;;22.20;45.70;;;;;;467904;254;2133;-39
2022/05/09 03:52:16;;;;;;;;;;;22.20;45.70;;;;;;467700;254;1189;-39
2022/05/09 03:54:18;;;;;;;;;;;22.20;45.80;;;;;;467802;254;1058;-39
2022/05/09 03:56:19;;;;;;;;;;;22.20;45.70;;;;;;467747;254;1127;-39
2022/05/09 03:58:20;;;;;;;;;;;22.30;45.60;;;;;;467654;254;1169;-39
2022/05/09 04:00:22;;;;;;;;;;;22.30;45.60;;;;;;468087;254;1359;-39
2022/05/09 04:02:23;;;;;;;;;;;22.20;45.60;;;;;;467774;254;1415;-39
2022/05/09 04:04:24;;;;;;;;;;;22.30;45.60;;;;;;467716;254;1254;-39
2022/05/09 04:06:26;;;;;;;;;;;22.30;45.60;;;;;;467607;254;1259;-38
2022/05/09 04:08:27;;;;;;;;;;;22.30;45.60;;;;;;467798;254;1181;-38
2022/05/09 04:10:28;;;;;;;;;;;22.30;45.70;;;;;;467628;254;2192;-39
2022/05/09 04:12:30;;;;;;;;;;;22.30;45.60;;;;;;467613;254;1170;-39
2022/05/09 04:16:50;;;;;;;;;;;22.30;45.60;;;;;;467489;255;1332;-39
2022/05/09 04:18:52;;;;;;;;;;;22.30;45.60;;;;;;467618;254;1175;-39
2022/05/09 04:20:53;;;;;;;;;;;22.20;45.60;;;;;;467899;254;1273;-39
2022/05/09 04:22:54;;;;;;;;;;;22.30;45.60;;;;;;467610;254;1368;-39
2022/05/09 04:24:57;;;;;;;;;;;22.30;45.60;;;;;;467602;254;1107;-39
2022/05/09 04:26:57;;;;;;;;;;;22.30;45.60;;;;;;467504;255;2239;-39
2022/05/09 04:28:59;;;;;;;;;;;22.30;45.60;;;;;;467612;254;2253;-39
2022/05/09 04:31:00;;;;;;;;;;;22.30;45.60;;;;;;467635;254;1371;-39
2022/05/09 04:33:01;;;;;;;;;;;22.30;45.60;;;;;;467525;254;1240;-39
2022/05/09 04:35:02;;;;;;;;;;;22.30;45.60;;;;;;467676;254;1233;-39
2022/05/09 04:37:04;;;;;;;;;;;22.20;45.60;;;;;;467492;254;1276;-39
2022/05/09 04:39:05;;;;;;;;;;;22.30;45.70;;;;;;467647;254;1088;-39
2022/05/09 04:41:07;;;;;;;;;;;22.20;45.70;;;;;;467684;254;1157;-39
2022/05/09 04:43:08;;;;;;;;;;;22.20;45.60;;;;;;467575;254;1249;-39
2022/05/09 04:45:09;;;;;;;;;;;22.20;45.60;;;;;;467474;254;1152;-39
2022/05/09 04:47:10;;;;;;;;;;;22.30;45.60;;;;;;467336;254;1207;-39
2022/05/09 04:49:12;;;;;;;;;;;22.30;45.60;;;;;;467405;254;2196;-39
2022/05/09 04:51:15;;;;;;;;;;;22.30;45.50;;;;;;467567;254;1254;-39
2022/05/09 04:53:16;;;;;;;;;;;22.30;45.60;;;;;;467459;255;2169;-39
2022/05/09 04:55:16;;;;;;;;;;;22.20;45.60;;;;;;467372;255;2105;-39
2022/05/09 04:57:17;;;;;;;;;;;22.20;45.70;;;;;;467433;254;1188;-39
2022/05/09 04:59:19;;;;;;;;;;;22.20;45.70;;;;;;467422;254;1500;-38
2022/05/09 05:01:20;;;;;;;;;;;22.20;45.70;;;;;;467487;254;1156;-39
2022/05/09 05:03:21;;;;;;;;;;;22.20;45.60;;;;;;467479;254;1246;-39
2022/05/09 05:05:23;;;;;;;;;;;22.30;45.60;;;;;;467577;254;1086;-39
2022/05/09 05:07:24;;;;;;;;;;;22.20;45.70;;;;;;467434;254;1366;-39
2022/05/09 05:09:25;;;;;;;;;;;22.30;45.70;;;;;;467479;254;2189;-38
2022/05/09 05:11:27;;;;;;;;;;;22.20;45.70;;;;;;467384;254;1213;-39
2022/05/09 05:13:28;;;;;;;;;;;22.20;45.70;;;;;;467548;254;1189;-39
2022/05/09 05:15:29;;;;;;;;;;;22.20;45.70;;;;;;467301;254;1142;-39
2022/05/09 05:17:30;;;;;;;;;;;22.20;45.60;;;;;;467319;254;1184;-38
2022/05/09 05:19:32;;;;;;;;;;;22.20;45.70;;;;;;467398;254;1097;-39
2022/05/09 05:21:33;;;;;;;;;;;22.20;45.80;;;;;;467530;254;1297;-39
2022/05/09 05:23:35;;;;;;;;;;;22.20;45.70;;;;;;467393;254;1223;-38
2022/05/09 05:25:37;;;;;;;;;;;22.20;45.70;;;;;;467381;254;1297;-39
2022/05/09 05:27:37;;;;;;;;;;;22.20;45.60;;;;;;467222;255;2191;-39
2022/05/09 05:29:39;;;;;;;;;;;22.30;45.60;;;;;;467448;254;2201;-39
2022/05/09 05:31:40;;;;;;;;;;;22.20;45.60;;;;;;467357;253;1313;-39
2022/05/09 05:33:41;;;;;;;;;;;22.30;45.60;;;;;;467393;254;1186;-39
2022/05/09 05:35:43;;;;;;;;;;;22.30;45.60;;;;;;467380;254;1240;-39
2022/05/09 05:37:44;;;;;;;;;;;22.30;45.60;;;;;;467500;254;1181;-39
2022/05/09 05:39:46;;;;;;;;;;;22.30;45.60;;;;;;467492;254;1068;-39
2022/05/09 05:41:47;;;;;;;;;;;22.30;45.60;;;;;;467364;254;2449;-39
2022/05/09 05:43:48;;;;;;;;;;;22.30;45.60;;;;;;467429;254;1106;-39
2022/05/09 05:45:49;;;;;;;;;;;22.30;45.60;;;;;;467663;254;1071;-39
2022/05/09 05:47:51;;;;;;;;;;;22.30;45.60;;;;;;467251;254;1331;-39
2022/05/09 05:49:52;;;;;;;;;;;22.20;45.60;;;;;;467398;254;2205;-39
2022/05/09 05:51:53;;;;;;;;;;;22.20;45.60;;;;;;467428;254;1327;-39
2022/05/09 05:53:55;;;;;;;;;;;22.20;45.60;;;;;;467144;254;1224;-39
2022/05/09 05:55:56;;;;;;;;;;;22.20;45.70;;;;;;467298;254;1218;-39
2022/05/09 05:57:58;;;;;;;;;;;22.20;45.80;;;;;;467310;254;1177;-39
2022/05/09 05:59:59;;;;;;;;;;;22.20;45.70;;;;;;467202;254;1179;-39
2022/05/09 06:02:00;;;;;;;;;;;22.20;45.60;;;;;;467198;254;1698;-39
2022/05/09 06:04:02;;;;;;;;;;;22.20;45.70;;;;;;467186;254;1185;-39
2022/05/09 06:06:03;;;;;;;;;;;22.30;45.70;;;;;;467248;254;1193;-39
2022/05/09 06:08:04;;;;;;;;;;;22.20;45.70;;;;;;467149;254;1262;-38
2022/05/09 06:10:06;;;;;;;;;;;22.30;45.60;;;;;;467149;254;2215;-39
2022/05/09 06:12:07;;;;;;;;;;;22.30;45.60;;;;;;467246;254;1305;-39
2022/05/09 06:14:08;;;;;;;;;;;22.30;45.50;;;;;;467288;254;1171;-39
2022/05/09 06:16:10;;;;;;;;;;;22.30;45.60;;;;;;467230;254;1260;-39
2022/05/09 06:18:12;;;;;;;;;;;22.30;45.60;;;;;;467082;254;2329;-39
2022/05/09 06:20:13;;;;;;;;;;;22.30;45.60;;;;;;467065;254;2105;-39
2022/05/09 06:22:14;;;;;;;;;;;22.30;45.60;;;;;;467258;254;1156;-39
2022/05/09 06:24:16;;;;;;;;;;;22.30;45.50;;;;;;467057;254;2128;-38
2022/05/09 06:26:17;;;;;;;;;;;22.30;45.60;;;;;;467091;254;1211;-39
2022/05/09 06:28:18;;;;;;;;;;;22.30;45.60;;;;;;467065;254;1176;-39
2022/05/09 06:30:20;;;;;;;;;;;22.30;45.60;;;;;;466989;254;2228;-39
2022/05/09 06:32:24;;;;;;;;;;;22.30;45.50;;;;;;467073;254;1146;-39
2022/05/09 06:34:22;;;;;;;;;;;22.30;45.60;;;;;;467040;255;1806;-38
2022/05/09 06:36:24;;;;;;;;;;;22.30;45.50;;;;;;467138;254;1407;-38
2022/05/09 06:38:27;;;;;;;;;;;22.30;45.50;;;;;;467130;254;1108;-39
2022/05/09 06:40:26;;;;;;;;;;;22.40;45.40;;;;;;467012;255;1999;-39
2022/05/09 06:42:28;;;;;;;;;;;22.40;45.40;;;;;;467085;254;1359;-39
2022/05/09 06:44:29;;;;;;;;;;;22.40;45.40;;;;;;467089;254;1123;-39
2022/05/09 06:46:31;;;;;;;;;;;22.50;45.40;;;;;;467025;254;1161;-39
2022/05/09 06:48:32;;;;;;;;;;;22.50;45.40;;;;;;467164;254;1087;-39
2022/05/09 06:50:34;;;;;;;;;;;22.50;45.40;;;;;;466923;254;2197;-39
2022/05/09 06:52:36;;;;;;;;;;;22.50;45.30;;;;;;467003;254;1224;-38
2022/05/09 06:54:36;;;;;;;;;;;22.50;45.30;;;;;;467323;255;2381;-39
2022/05/09 06:56:38;;;;;;;;;;;22.50;45.30;;;;;;467754;254;1097;-39
2022/05/09 06:58:39;;;;;;;;;;;22.50;45.30;;;;;;467035;254;1182;-39
2022/05/09 07:00:41;;;;;;;;;;;22.60;45.20;;;;;;466922;254;1369;-39
2022/05/09 07:02:42;;;;;;;;;;;22.50;45.20;;;;;;466962;254;1191;-39
2022/05/09 07:04:43;;;;;;;;;;;22.60;45.30;;;;;;466919;254;1183;-39
2022/05/09 07:06:45;;;;;;;;;;;22.60;45.30;;;;;;466904;254;1248;-39
2022/05/09 07:08:46;;;;;;;;;;;22.50;45.30;;;;;;466971;254;1295;-39
2022/05/09 07:10:48;;;;;;;;;;;22.60;45.30;;;;;;467045;254;2200;-39
2022/05/09 07:12:49;;;;;;;;;;;22.60;45.30;;;;;;466903;254;1354;-39
2022/05/09 07:14:50;;;;;;;;;;;22.60;45.30;;;;;;466957;254;1657;-39
2022/05/09 07:16:52;;;;;;;;;;;22.60;45.30;;;;;;466909;254;1337;-39
2022/05/09 07:18:53;;;;;;;;;;;22.60;45.40;;;;;;466892;254;1219;-38
2022/05/09 07:20:54;;;;;;;;;;;22.60;45.40;;;;;;466766;254;1269;-38
2022/05/09 07:22:56;;;;;;;;;;;22.60;45.40;;;;;;466885;254;1259;-39
2022/05/09 07:24:57;;;;;;;;;;;22.60;45.40;;;;;;466978;254;1274;-39
2022/05/09 07:26:58;;;;;;;;;;;22.60;45.40;;;;;;466921;254;1304;-39
2022/05/09 07:29:00;;;;;;;;;;;22.60;45.50;;;;;;466831;254;1216;-39
2022/05/09 07:31:01;;;;;;;;;;;22.60;45.50;;;;;;466635;254;2180;-39
2022/05/09 07:33:02;;;;;;;;;;;22.60;45.50;;;;;;466689;254;1269;-39
2022/05/09 07:35:04;;;;;;;;;;;22.60;45.50;;;;;;466809;254;1303;-39
2022/05/09 07:37:05;;;;;;;;;;;22.60;45.50;;;;;;466782;254;1202;-39
2022/05/09 07:39:06;;;;;;;;;;;22.60;45.50;;;;;;466568;254;1203;-39
2022/05/09 07:41:08;;;;;;;;;;;22.60;45.50;;;;;;466497;254;1168;-39
2022/05/09 07:43:09;;;;;;;;;;;22.60;45.50;;;;;;466614;254;1180;-39
2022/05/09 07:45:11;;;;;;;;;;;22.60;45.50;;;;;;466705;254;1154;-39
2022/05/09 07:47:12;;;;;;;;;;;22.60;45.60;;;;;;466978;254;1212;-39
2022/05/09 07:49:13;;;;;;;;;;;22.60;45.60;;;;;;467274;254;914;-39
2022/05/09 07:51:15;;;;;;;;;;;22.60;45.60;;;;;;467225;254;2200;-38
2022/05/09 07:53:16;;;;;;;;;;;22.60;45.60;;;;;;467605;254;2189;-39
2022/05/09 07:55:17;;;;;;;;;;;22.70;45.70;;;;;;466689;254;1143;-39
2022/05/09 07:57:18;;;;;;;;;;;22.70;45.60;;;;;;466694;254;1110;-39
2022/05/09 07:59:20;;;;;;;;;;;22.70;45.60;;;;;;466723;254;1318;-39
2022/05/09 08:01:21;;;;;;;;;;;22.70;45.70;;;;;;466523;254;1323;-39
2022/05/09 08:03:23;;;;;;;;;;;22.70;45.70;;;;;;466690;254;1114;-39
2022/05/09 08:05:24;;;;;;;;;;;22.70;45.60;;;;;;466699;254;1234;-38
2022/05/09 08:07:25;;;;;;;;;;;22.70;45.70;;;;;;466750;254;1303;-39
2022/05/09 08:09:27;;;;;;;;;;;22.70;45.70;;;;;;467275;254;1288;-39
2022/05/09 08:11:28;;;;;;;;;;;22.70;45.60;;;;;;467390;254;2201;-39
2022/05/09 08:13:30;;;;;;;;;;;22.80;45.50;;;;;;467466;254;874;-39
2022/05/09 08:15:31;;;;;;;;;;;22.90;45.40;;;;;;467059;254;2389;-39
2022/05/09 08:17:32;;;;;;;;;;;22.90;45.20;;;;;;467454;254;1117;-39
2022/05/09 08:19:34;;;;;;;;;;;23.00;45.10;;;;;;467411;254;1374;-39
2022/05/09 08:21:36;;;;;;;;;;;23.00;45.20;;;;;;467015;254;1256;-39
2022/05/09 08:23:36;;;;;;;;;;;22.90;45.20;;;;;;467444;254;2138;-39
2022/05/09 08:25:38;;;;;;;;;;;22.90;45.30;;;;;;466934;254;1125;-39
2022/05/09 08:27:39;;;;;;;;;;;22.90;45.30;;;;;;466887;254;1126;-39
2022/05/09 08:29:40;;;;;;;;;;;22.90;45.30;;;;;;467025;254;1098;-39
2022/05/09 08:31:42;;;;;;;;;;;22.90;45.30;;;;;;466914;254;2197;-39
2022/05/09 08:33:43;;;;;;;;;;;22.80;45.30;;;;;;467067;254;1372;-39
2022/05/09 08:35:44;;;;;;;;;;;22.90;45.40;;;;;;467500;254;1069;-39
2022/05/09 08:37:45;;;;;;;;;;;22.90;45.40;;;;;;467005;254;1359;-39
2022/05/09 08:39:47;;;;;;;;;;;22.90;45.40;;;;;;467159;254;1225;-38
2022/05/09 08:41:48;;;;;;;;;;;22.90;45.40;;;;;;467409;254;1150;-39
2022/05/09 08:43:51;;;;;;;;;;;22.90;45.30;;;;;;467172;254;1175;-38
2022/05/09 08:45:51;;;;;;;;;;;23.00;45.30;;;;;;467610;255;2625;-39
2022/05/09 08:47:52;;;;;;;;;;;23.00;45.30;;;;;;467593;254;1062;-36
2022/05/09 08:49:53;;;;;;;;;;;23.00;45.20;;;;;;467128;254;1367;-39
2022/05/09 08:51:56;;;;;;;;;;;23.00;45.20;;;;;;467483;254;2258;-39
2022/05/09 08:53:56;;;;;;;;;;;23.00;45.20;;;;;;467049;255;2093;-39
2022/05/09 08:55:59;;;;;;;;;;;23.00;45.20;;;;;;467136;254;1196;-39
2022/05/09 08:58:00;;;;;;;;;;;23.00;45.20;;;;;;467019;255;2863;-39
2022/05/09 09:00:00;;;;;;;;;;;23.10;45.10;;;;;;467359;254;2191;-39
2022/05/09 09:02:01;;;;;;;;;;;23.10;45.10;;;;;;467108;254;1053;-39
2022/05/09 09:04:03;;;;;;;;;;;23.10;45.00;;;;;;467211;254;1112;-39
2022/05/09 09:06:04;;;;;;;;;;;23.10;45.00;;;;;;467139;254;1073;-39
2022/05/09 09:08:05;;;;;;;;;;;23.20;44.90;;;;;;467137;254;1122;-39
2022/05/09 09:10:07;;;;;;;;;;;23.20;45.00;;;;;;467053;254;1066;-39
2022/05/09 09:12:08;;;;;;;;;;;23.20;45.00;;;;;;466999;255;2196;-39
2022/05/09 09:14:09;;;;;;;;;;;23.20;45.00;;;;;;467018;254;1173;-39
2022/05/09 09:16:12;;;;;;;;;;;23.20;45.00;;;;;;466984;254;1131;-39
2022/05/09 09:18:12;;;;;;;;;;;23.20;44.90;;;;;;467376;255;1439;-39
2022/05/09 09:20:13;;;;;;;;;;;23.20;44.80;;;;;;467601;254;1106;-39
2022/05/09 09:22:14;;;;;;;;;;;23.20;44.80;;;;;;467704;254;1242;-38
2022/05/09 09:24:16;;;;;;;;;;;23.20;44.80;;;;;;467576;254;1108;-39
2022/05/09 09:26:20;;;;;;;;;;;23.30;44.90;;;;;;467098;254;1154;-39
2022/05/09 09:28:18;;;;;;;;;;;23.30;44.80;;;;;;467469;255;2307;-39
2022/05/09 09:30:21;;;;;;;;;;;23.30;44.80;;;;;;467700;254;1002;-39
2022/05/09 09:32:22;;;;;;;;;;;23.30;44.80;;;;;;467603;255;2184;-39
2022/05/09 09:34:24;;;;;;;;;;;23.30;44.80;;;;;;466601;255;2025;-39
2022/05/09 09:36:24;;;;;;;;;;;23.30;44.70;;;;;;466477;254;2276;-39
2022/05/09 09:38:25;;;;;;;;;;;23.30;44.80;;;;;;467167;254;1327;-36
2022/05/09 09:40:26;;;;;;;;;;;23.30;44.80;;;;;;467470;254;1282;-39
2022/05/09 09:42:28;;;;;;;;;;;23.30;44.80;;;;;;467015;254;1333;-39
2022/05/09 09:44:29;;;;;;;;;;;23.30;44.80;;;;;;467386;254;1151;-39
2022/05/09 09:46:30;;;;;;;;;;;23.30;44.90;;;;;;467246;254;1098;-39
2022/05/09 09:48:32;;;;;;;;;;;23.30;44.90;;;;;;467379;254;1313;-39
2022/05/09 09:50:33;;;;;;;;;;;23.20;45.00;;;;;;467482;254;2207;-38
2022/05/09 09:52:34;;;;;;;;;;;23.20;45.10;;;;;;467423;255;1426;-39
2022/05/09 09:54:36;;;;;;;;;;;23.20;45.00;;;;;;467423;254;1078;-38
2022/05/09 09:56:38;;;;;;;;;;;23.20;45.00;;;;;;467205;254;1232;-39
2022/05/09 09:58:39;;;;;;;;;;;23.20;45.10;;;;;;466910;254;1997;-39
2022/05/09 10:00:40;;;;;;;;;;;23.10;45.30;;;;;;466813;254;1246;-39
2022/05/09 10:02:41;;;;;;;;;;;23.10;45.30;;;;;;467178;254;1659;-39
2022/05/09 10:04:42;;;;;;;;;;;23.10;45.30;;;;;;467573;254;1077;-39
2022/05/09 10:06:44;;;;;;;;;;;23.10;45.40;;;;;;467153;254;1188;-39
2022/05/09 10:08:45;;;;;;;;;;;23.10;45.50;;;;;;466707;254;1610;-39
2022/05/09 10:10:46;;;;;;;;;;;23.10;45.40;;;;;;466668;254;2184;-39
2022/05/09 10:12:48;;;;;;;;;;;23.10;45.40;;;;;;467073;254;1648;-39
2022/05/09 10:14:49;;;;;;;;;;;23.10;45.50;;;;;;467087;255;2210;-39
2022/05/09 10:16:54;;;;;;;;;;;23.10;45.50;;;;;;467056;254;1075;-39
2022/05/09 10:18:52;;;;;;;;;;;23.10;45.60;;;;;;467269;255;2055;-39
2022/05/09 10:20:53;;;;;;;;;;;23.10;45.50;;;;;;467552;254;1052;-39
2022/05/09 10:25:13;;;;;;;;;;;23.10;45.50;;;;;;467138;255;1181;-39
2022/05/09 10:27:15;;;;;;;;;;;23.10;45.40;;;;;;467199;254;1095;-39
2022/05/09 10:29:17;;;;;;;;;;;23.10;45.40;;;;;;467287;254;1105;-39
2022/05/09 10:31:20;;;;;;;;;;;23.10;45.40;;;;;;466934;254;2402;-39
2022/05/09 10:33:18;;;;;;;;;;;23.10;45.40;;;;;;467509;255;2272;-38
2022/05/09 10:35:20;;;;;;;;;;;23.10;45.40;;;;;;467716;254;938;-39
2022/05/09 10:37:21;;;;;;;;;;;23.10;45.50;;;;;;467491;254;1109;-39
2022/05/09 10:39:23;;;;;;;;;;;23.10;45.50;;;;;;467252;254;831;-39
2022/05/09 10:41:24;;;;;;;;;;;23.20;45.50;;;;;;466812;255;1411;-39
2022/05/09 10:43:25;;;;;;;;;;;23.10;45.50;;;;;;467262;254;703;-39
2022/05/09 10:45:26;;;;;;;;;;;23.10;45.60;;;;;;467131;254;816;-39
2022/05/09 10:47:28;;;;;;;;;;;23.10;45.60;;;;;;467016;254;1173;-39
2022/05/09 10:49:29;;;;;;;;;;;23.10;45.50;;;;;;466952;254;1128;-39
2022/05/09 10:51:32;;;;;;;;;;;23.10;45.50;;;;;;466872;253;2224;-39
2022/05/09 10:53:32;;;;;;;;;;;23.10;45.50;;;;;;466888;255;2034;-39
2022/05/09 10:55:33;;;;;;;;;;;23.10;45.50;;;;;;466848;254;1378;-39
2022/05/09 10:57:35;;;;;;;;;;;23.10;45.60;;;;;;466868;254;1117;-39
2022/05/09 10:59:36;;;;;;;;;;;23.10;45.60;;;;;;466872;254;1113;-39
2022/05/09 11:01:38;;;;;;;;;;;23.10;45.60;;;;;;466862;254;1223;-39
2022/05/09 11:03:40;;;;;;;;;;;23.10;45.60;;;;;;466809;254;1353;-39
2022/05/09 11:05:40;;;;;;;;;;;23.10;45.60;;;;;;466598;255;2456;-39
2022/05/09 11:07:42;;;;;;;;;;;23.10;45.70;;;;;;466709;254;1254;-39
2022/05/09 11:09:45;;;;;;;;;;;23.10;45.70;;;;;;466927;254;1280;-39
2022/05/09 11:11:44;;;;;;;;;;;23.10;45.70;;;;;;467326;254;2825;-39
2022/05/09 11:13:45;;;;;;;;;;;23.10;45.70;;;;;;467369;254;1227;-39
2022/05/09 11:15:47;;;;;;;;;;;23.10;45.70;;;;;;466776;254;1315;-39
2022/05/09 11:17:48;;;;;;;;;;;23.10;45.60;;;;;;466829;254;1177;-39
2022/05/09 11:19:50;;;;;;;;;;;23.10;45.70;;;;;;466903;254;1496;-39
2022/05/09 11:21:51;;;;;;;;;;;23.10;45.70;;;;;;467061;254;1313;-39
2022/05/09 11:23:53;;;;;;;;;;;23.10;45.70;;;;;;467221;254;1071;-39
2022/05/09 11:25:54;;;;;;;;;;;23.10;45.70;;;;;;467397;254;1515;-39
2022/05/09 11:27:56;;;;;;;;;;;23.10;45.70;;;;;;467477;254;1099;-39
2022/05/09 11:29:57;;;;;;;;;;;23.10;45.60;;;;;;466805;254;1285;-39
2022/05/09 11:31:58;;;;;;;;;;;23.10;45.70;;;;;;466879;254;2216;-39
2022/05/09 11:34:00;;;;;;;;;;;23.10;45.80;;;;;;467058;254;1074;-39
2022/05/09 11:36:01;;;;;;;;;;;23.10;45.70;;;;;;467368;253;1581;-39
2022/05/09 11:38:03;;;;;;;;;;;23.10;45.80;;;;;;467452;254;989;-39
2022/05/09 11:40:04;;;;;;;;;;;23.10;45.70;;;;;;466951;254;1861;-39
2022/05/09 11:43:27;;;;;;;;;;;23.10;45.70;;;;;;466939;254;1218;-39
2022/05/09 11:44:06;;;;;;;;;;;23.00;45.80;;;;;;465045;255;1302;-39
2022/05/09 11:46:07;;;;;;;;;;;23.00;45.80;;;;;;466620;254;1563;-39
2022/05/09 11:48:09;;;;;;;;;;;23.00;45.70;;;;;;466544;255;1111;-39
2022/05/09 11:50:10;;;;;;;;;;;23.00;45.70;;;;;;466490;254;1106;-39
2022/05/09 11:52:12;;;;;;;;;;;23.10;45.70;;;;;;466497;254;2208;-39
2022/05/09 11:54:13;;;;;;;;;;;23.10;45.70;;;;;;466815;254;1342;-39
2022/05/09 11:56:14;;;;;;;;;;;23.10;45.70;;;;;;466784;254;1415;-39
2022/05/09 11:58:15;;;;;;;;;;;23.00;45.70;;;;;;466844;254;1167;-39
2022/05/09 12:00:17;;;;;;;;;;;23.00;45.70;;;;;;466812;254;1117;-39
2022/05/09 12:02:18;;;;;;;;;;;23.00;45.80;;;;;;466684;254;1162;-39
2022/05/09 12:04:19;;;;;;;;;;;23.00;45.80;;;;;;466765;254;1258;-39
2022/05/09 12:06:21;;;;;;;;;;;23.00;45.80;;;;;;466670;254;1300;-39
2022/05/09 12:08:22;;;;;;;;;;;23.00;45.90;;;;;;467072;254;1244;-39